createdAt,value
2024-04-25T00:00:38.209Z,3.65
2024-04-25T00:03:05.182Z,3.67
2024-04-25T00:05:32.192Z,3.67
2024-04-25T00:07:58.792Z,3.66
2024-04-25T00:10:25.617Z,3.68
2024-04-25T00:12:52.192Z,3.65
2024-04-25T00:15:18.758Z,3.59
2024-04-25T00:17:45.508Z,3.50
2024-04-25T00:20:12.367Z,3.47
2024-04-25T00:22:38.939Z,3.44
2024-04-25T00:25:05.822Z,3.42
2024-04-25T00:27:32.504Z,3.45
2024-04-25T00:29:59.066Z,3.44
2024-04-25T00:32:25.631Z,3.38
2024-04-25T00:34:52.288Z,3.38
2024-04-25T00:37:19.974Z,3.35
2024-04-25T00:39:46.879Z,3.34
2024-04-25T00:42:21.138Z,3.37
2024-04-25T00:44:47.945Z,3.32
2024-04-25T00:47:18.595Z,3.32
2024-04-25T00:49:47.032Z,3.35
2024-04-25T00:52:16.921Z,3.33
2024-04-25T00:54:44.248Z,3.26
2024-04-25T00:57:15.904Z,3.26
2024-04-25T00:59:45.791Z,3.24
2024-04-25T01:02:14.247Z,3.27
2024-04-25T01:04:42.713Z,3.29
2024-04-25T01:07:10.670Z,3.28
2024-04-25T01:09:37.357Z,3.32
2024-04-25T01:12:10.727Z,3.32
2024-04-25T01:14:37.533Z,3.34
2024-04-25T01:17:04.172Z,3.34
2024-04-25T01:19:30.847Z,3.33
2024-04-25T01:21:57.982Z,3.35
2024-04-25T01:24:29.437Z,3.36
2024-04-25T01:26:57.604Z,3.35
2024-04-25T01:29:26.340Z,3.37
2024-04-25T01:31:53.978Z,3.39
2024-04-25T01:34:20.880Z,3.41
2024-04-25T01:36:47.667Z,3.44
2024-04-25T01:39:15.001Z,3.44
2024-04-25T01:41:41.931Z,3.42
2024-04-25T01:44:08.598Z,3.42
2024-04-25T01:46:35.837Z,3.40
2024-04-25T01:53:00.711Z,3.35
2024-04-25T01:55:27.430Z,3.35
2024-04-25T01:57:54.606Z,3.33
2024-04-25T02:00:21.200Z,3.31
2024-04-25T02:02:48.174Z,3.30
2024-04-25T02:05:14.929Z,3.33
2024-04-25T02:07:41.502Z,3.30
2024-04-25T02:10:30.574Z,3.34
2024-04-25T02:12:57.147Z,3.29
2024-04-25T02:15:23.707Z,3.28
2024-04-25T02:17:50.307Z,3.28
2024-04-25T02:20:36.048Z,3.27
2024-04-25T02:23:21.460Z,3.27
2024-04-25T02:25:48.074Z,3.26
2024-04-25T02:30:42.916Z,3.24
2024-04-25T02:33:09.589Z,3.22
2024-04-25T02:35:36.398Z,3.20
2024-04-25T02:38:03.007Z,3.15
2024-04-25T02:40:29.750Z,3.11
2024-04-25T02:42:56.369Z,3.10
2024-04-25T02:45:25.310Z,3.09
2024-04-25T02:47:53.509Z,3.08
2024-04-25T02:50:20.172Z,3.06
2024-04-25T02:52:46.731Z,3.07
2024-04-25T02:55:13.437Z,3.08
2024-04-25T02:57:40.220Z,3.11
2024-04-25T03:00:07.427Z,3.15
2024-04-25T03:02:34.543Z,3.16
2024-04-25T03:05:01.119Z,3.18
2024-04-25T03:07:27.647Z,3.16
2024-04-25T03:09:54.187Z,3.14
2024-04-25T03:12:20.939Z,3.17
2024-04-25T03:14:47.512Z,3.14
2024-04-25T03:17:14.105Z,3.12
2024-04-25T03:19:40.642Z,3.06
2024-04-25T03:22:07.192Z,3.06
2024-04-25T03:24:33.810Z,3.02
2024-04-25T03:27:00.374Z,3.01
2024-04-25T03:29:26.979Z,2.92
2024-04-25T03:31:53.573Z,2.92
2024-04-25T03:34:20.375Z,2.90
2024-04-25T03:36:47.010Z,2.89
2024-04-25T03:39:14.164Z,2.89
2024-04-25T03:41:41.575Z,2.89
2024-04-25T03:44:08.221Z,2.87
2024-04-25T03:46:34.776Z,2.89
2024-04-25T03:49:01.361Z,2.86
2024-04-25T03:51:27.942Z,2.77
2024-04-25T03:53:54.927Z,2.70
2024-04-25T03:56:21.537Z,2.69
2024-04-25T03:58:48.097Z,2.69
2024-04-25T04:01:15.092Z,2.75
2024-04-25T04:03:41.665Z,2.78
2024-04-25T04:06:08.250Z,2.79
2024-04-25T04:08:34.844Z,2.79
2024-04-25T04:11:01.442Z,2.83
2024-04-25T04:13:28.086Z,2.82
2024-04-25T04:15:54.654Z,2.78
2024-04-25T04:18:21.553Z,2.78
2024-04-25T04:20:52.047Z,2.81
2024-04-25T04:23:18.834Z,2.86
2024-04-25T04:25:45.477Z,2.84
2024-04-25T04:28:15.463Z,2.82
2024-04-25T04:30:43.006Z,2.83
2024-04-25T04:33:09.806Z,2.87
2024-04-25T04:35:36.782Z,2.87
2024-04-25T04:38:03.667Z,2.89
2024-04-25T04:40:30.194Z,2.91
2024-04-25T04:42:56.765Z,2.94
2024-04-25T04:45:23.449Z,2.94
2024-04-25T04:47:50.062Z,2.94
2024-04-25T04:50:20.314Z,2.94
2024-04-25T04:52:47.903Z,2.97
2024-04-25T04:55:15.030Z,2.98
2024-04-25T04:57:41.800Z,2.99
2024-04-25T05:00:08.929Z,3.02
2024-04-25T05:02:35.673Z,3.03
2024-04-25T05:05:02.451Z,3.04
2024-04-25T05:07:29.064Z,3.06
2024-04-25T05:09:55.559Z,3.09
2024-04-25T05:12:22.143Z,3.11
2024-04-25T05:14:48.679Z,3.12
2024-04-25T05:17:15.436Z,3.10
2024-04-25T05:19:42.189Z,3.07
2024-04-25T05:22:09.731Z,3.08
2024-04-25T05:24:36.231Z,3.11
2024-04-25T05:27:02.874Z,3.14
2024-04-25T05:29:32.087Z,3.17
2024-04-25T05:32:00.287Z,3.19
2024-04-25T05:34:26.856Z,3.23
2024-04-25T05:36:53.361Z,3.21
2024-04-25T05:39:20.841Z,3.23
2024-04-25T05:41:47.467Z,3.27
2024-04-25T05:44:14.072Z,3.30
2024-04-25T05:46:40.612Z,3.33
2024-04-25T05:49:07.270Z,3.40
2024-04-25T05:51:33.839Z,3.44
2024-04-25T05:54:00.420Z,3.47
2024-04-25T05:56:27.068Z,3.48
2024-04-25T05:58:58.012Z,3.50
2024-04-25T06:01:24.578Z,3.55
2024-04-25T06:03:51.263Z,3.62
2024-04-25T06:06:17.895Z,3.66
2024-04-25T06:08:44.854Z,3.68
2024-04-25T06:11:14.785Z,3.67
2024-04-25T06:13:42.646Z,3.76
2024-04-25T06:16:11.457Z,3.82
2024-04-25T06:18:38.280Z,3.86
2024-04-25T06:21:05.163Z,3.93
2024-04-25T06:23:31.935Z,3.98
2024-04-25T06:25:58.484Z,4.00
2024-04-25T06:28:25.100Z,4.04
2024-04-25T06:30:51.668Z,4.07
2024-04-25T06:33:18.363Z,4.12
2024-04-25T06:35:45.102Z,4.14
2024-04-25T06:38:15.657Z,4.18
2024-04-25T06:40:43.625Z,4.24
2024-04-25T06:43:10.607Z,4.30
2024-04-25T06:45:38.054Z,4.29
2024-04-25T06:48:06.139Z,4.30
2024-04-25T06:50:32.804Z,4.33
2024-04-25T06:52:59.384Z,4.39
2024-04-25T06:55:26.147Z,4.49
2024-04-25T06:57:54.666Z,4.54
2024-04-25T07:00:22.049Z,4.55
2024-04-25T07:02:48.628Z,4.64
2024-04-25T07:05:15.326Z,4.71
2024-04-25T07:07:42.342Z,4.76
2024-04-25T07:10:10.271Z,4.85
2024-04-25T07:12:38.818Z,4.91
2024-04-25T07:15:12.439Z,4.99
2024-04-25T07:17:39.204Z,5.07
2024-04-25T07:20:06.405Z,5.09
2024-04-25T07:22:32.972Z,5.14
2024-04-25T07:24:59.478Z,5.21
2024-04-25T07:27:26.159Z,5.30
2024-04-25T07:29:52.818Z,5.34
2024-04-25T07:32:19.488Z,5.38
2024-04-25T07:34:46.168Z,5.40
2024-04-25T07:37:12.727Z,5.46
2024-04-25T07:39:39.360Z,5.61
2024-04-25T07:42:06.026Z,5.74
2024-04-25T07:44:32.690Z,5.76
2024-04-25T07:46:59.277Z,5.86
2024-04-25T07:49:25.991Z,5.89
2024-04-25T07:51:52.594Z,5.98
2024-04-25T07:54:19.709Z,5.98
2024-04-25T07:56:46.319Z,6.00
2024-04-25T07:59:13.102Z,6.00
2024-04-25T08:01:48.369Z,6.04
2024-04-25T08:04:15.985Z,6.08
2024-04-25T08:06:42.745Z,6.09
2024-04-25T08:09:10.351Z,6.20
2024-04-25T08:11:37.586Z,6.32
2024-04-25T08:14:04.340Z,6.35
2024-04-25T08:16:30.930Z,6.38
2024-04-25T08:18:57.495Z,6.39
2024-04-25T08:21:24.101Z,6.37
2024-04-25T08:23:50.844Z,6.31
2024-04-25T08:26:17.682Z,6.29
2024-04-25T08:28:44.321Z,6.24
2024-04-25T08:31:11.615Z,6.19
2024-04-25T08:33:38.476Z,6.09
2024-04-25T08:36:05.362Z,6.05
2024-04-25T08:38:35.925Z,5.96
2024-04-25T08:41:04.004Z,5.95
2024-04-25T08:43:31.554Z,5.97
2024-04-25T08:45:59.584Z,6.00
2024-04-25T08:48:29.197Z,6.02
2024-04-25T08:50:56.644Z,6.10
2024-04-25T08:53:26.521Z,6.18
2024-04-25T08:55:53.150Z,6.23
2024-04-25T08:58:20.221Z,6.26
2024-04-25T09:00:46.823Z,6.32
2024-04-25T09:03:15.588Z,6.33
2024-04-25T09:05:42.562Z,6.33
2024-04-25T09:08:11.583Z,6.37
2024-04-25T09:10:42.993Z,6.41
2024-04-25T09:13:10.166Z,6.41
2024-04-25T09:15:37.097Z,6.42
2024-04-25T09:18:09.720Z,6.45
2024-04-25T09:20:36.380Z,6.60
2024-04-25T09:23:05.887Z,6.72
2024-04-25T09:25:33.944Z,6.74
2024-04-25T09:28:02.498Z,6.74
2024-04-25T09:30:31.422Z,6.76
2024-04-25T09:32:58.294Z,6.87
2024-04-25T09:35:25.113Z,6.97
2024-04-25T09:37:51.837Z,7.05
2024-04-25T09:40:18.644Z,7.20
2024-04-25T09:42:45.733Z,7.11
2024-04-25T09:45:13.807Z,6.92
2024-04-25T09:47:48.542Z,6.78
2024-04-25T09:50:19.277Z,6.64
2024-04-25T09:53:13.611Z,6.59
2024-04-25T09:55:45.970Z,6.56
2024-04-25T09:58:15.022Z,6.55
2024-04-25T10:00:42.311Z,6.57
2024-04-25T10:03:11.604Z,6.59
2024-04-25T10:05:39.368Z,6.58
2024-04-25T10:08:06.992Z,6.56
2024-04-25T10:10:33.675Z,6.55
2024-04-25T10:13:00.211Z,6.55
2024-04-25T10:15:31.909Z,6.62
2024-04-25T10:17:59.321Z,6.69
2024-04-25T10:20:26.129Z,6.71
2024-04-25T10:22:59.548Z,6.71
2024-04-25T10:25:26.746Z,6.63
2024-04-25T10:28:04.220Z,6.64
2024-04-25T10:30:31.684Z,6.53
2024-04-25T10:32:58.627Z,6.32
2024-04-25T10:35:26.146Z,5.61
2024-04-25T10:37:54.328Z,5.19
2024-04-25T10:40:22.029Z,5.06
2024-04-25T10:43:03.762Z,5.07
2024-04-25T10:45:32.916Z,5.08
2024-04-25T10:48:00.652Z,5.12
2024-04-25T10:50:27.980Z,5.21
2024-04-25T10:52:57.090Z,5.23
2024-04-25T10:55:24.985Z,5.26
2024-04-25T10:57:51.541Z,5.33
2024-04-25T11:00:18.086Z,5.49
2024-04-25T11:02:44.770Z,5.66
2024-04-25T11:05:11.656Z,5.82
2024-04-25T11:07:39.450Z,5.89
2024-04-25T11:10:07.703Z,6.10
2024-04-25T11:12:34.302Z,6.30
2024-04-25T11:15:01.184Z,6.35
2024-04-25T11:17:31.502Z,6.52
2024-04-25T11:20:03.983Z,6.67
2024-04-25T11:22:41.544Z,6.81
2024-04-25T11:25:20.114Z,6.87
2024-04-25T11:27:49.989Z,6.92
2024-04-25T11:30:16.958Z,6.87
2024-04-25T11:32:47.173Z,6.96
2024-04-25T11:35:18.678Z,7.03
2024-04-25T11:37:45.597Z,7.08
2024-04-25T11:40:12.319Z,7.14
2024-04-25T11:42:38.935Z,7.19
2024-04-25T11:45:06.876Z,7.28
2024-04-25T11:47:33.523Z,7.34
2024-04-25T11:50:00.400Z,7.43
2024-04-25T11:52:26.951Z,7.42
2024-04-25T11:54:53.504Z,7.45
2024-04-25T11:57:20.141Z,7.46
2024-04-25T11:59:46.792Z,7.51
2024-04-25T12:02:15.429Z,7.64
2024-04-25T12:04:43.460Z,7.68
2024-04-25T12:07:10.141Z,7.84
2024-04-25T12:09:36.697Z,7.95
2024-04-25T12:12:03.396Z,8.19
2024-04-25T12:14:30.054Z,8.35
2024-04-25T12:16:56.725Z,8.39
2024-04-25T12:19:24.186Z,8.55
2024-04-25T12:21:50.794Z,8.50
2024-04-25T12:24:17.333Z,8.44
2024-04-25T12:26:45.717Z,8.39
2024-04-25T12:29:12.610Z,8.29
2024-04-25T12:31:39.178Z,8.23
2024-04-25T12:34:07.407Z,8.23
2024-04-25T12:36:35.297Z,8.24
2024-04-25T12:39:01.908Z,8.31
2024-04-25T12:41:28.479Z,8.76
2024-04-25T12:43:57.036Z,9.06
2024-04-25T12:46:25.336Z,9.19
2024-04-25T12:48:52.063Z,9.25
2024-04-25T12:51:18.956Z,9.46
2024-04-25T12:53:45.603Z,9.59
2024-04-25T12:56:12.260Z,9.42
2024-04-25T12:58:42.109Z,9.34
2024-04-25T13:01:09.800Z,9.38
2024-04-25T13:03:36.528Z,9.51
2024-04-25T13:06:03.204Z,9.62
2024-04-25T13:08:29.866Z,9.59
2024-04-25T13:10:56.390Z,9.81
2024-04-25T13:13:23.840Z,9.95
2024-04-25T13:15:50.438Z,10.08
2024-04-25T13:18:18.610Z,10.12
2024-04-25T13:20:46.038Z,10.07
2024-04-25T13:23:12.744Z,9.91
2024-04-25T13:25:39.325Z,9.82
2024-04-25T13:28:06.104Z,9.90
2024-04-25T13:30:33.557Z,9.82
2024-04-25T13:33:00.394Z,9.72
2024-04-25T13:35:27.247Z,9.69
2024-04-25T13:37:55.371Z,9.67
2024-04-25T13:40:22.669Z,9.66
2024-04-25T13:42:49.280Z,9.60
2024-04-25T13:45:15.819Z,9.59
2024-04-25T13:47:42.554Z,9.63
2024-04-25T13:50:09.510Z,9.55
2024-04-25T13:52:36.113Z,9.40
2024-04-25T13:55:03.148Z,9.25
2024-04-25T13:57:31.231Z,9.22
2024-04-25T13:59:57.961Z,9.22
2024-04-25T14:02:24.589Z,9.13
2024-04-25T14:04:51.117Z,9.06
2024-04-25T14:07:17.910Z,9.06
2024-04-25T14:09:44.740Z,9.02
2024-04-25T14:12:11.528Z,9.03
2024-04-25T14:14:38.150Z,8.97
2024-04-25T14:17:04.764Z,8.90
2024-04-25T14:19:31.316Z,8.89
2024-04-25T14:21:57.942Z,8.90
2024-04-25T14:24:24.624Z,8.87
2024-04-25T14:27:09.836Z,8.81
2024-04-25T14:29:38.987Z,8.79
2024-04-25T14:32:05.959Z,8.79
2024-04-25T14:34:32.690Z,8.84
2024-04-25T14:36:59.294Z,8.88
2024-04-25T14:39:26.360Z,8.91
2024-04-25T14:41:53.151Z,8.85
2024-04-25T14:44:20.064Z,8.87
2024-04-25T14:46:46.655Z,8.89
2024-04-25T14:49:13.176Z,8.86
2024-04-25T14:51:39.822Z,8.82
2024-04-25T14:54:06.411Z,8.80
2024-04-25T14:56:33.019Z,8.77
2024-04-25T14:58:59.605Z,8.79
2024-04-25T15:01:26.289Z,8.75
2024-04-25T15:03:53.089Z,8.71
2024-04-25T15:06:19.599Z,8.63
2024-04-25T15:08:46.269Z,8.60
2024-04-25T15:11:14.093Z,8.59
2024-04-25T15:13:41.148Z,8.59
2024-04-25T15:16:07.842Z,8.55
2024-04-25T15:18:37.199Z,8.54
2024-04-25T15:21:04.891Z,8.50
2024-04-25T15:23:31.780Z,8.52
2024-04-25T15:25:58.352Z,8.52
2024-04-25T15:28:25.039Z,8.50
2024-04-25T15:30:51.602Z,8.45
2024-04-25T15:33:18.341Z,8.47
2024-04-25T15:35:45.316Z,8.56
2024-04-25T15:38:11.880Z,8.59
2024-04-25T15:40:38.376Z,8.49
2024-04-25T15:43:05.130Z,8.39
2024-04-25T15:45:31.669Z,8.36
2024-04-25T15:47:58.496Z,8.34
2024-04-25T15:50:25.370Z,8.31
2024-04-25T15:52:52.081Z,8.31
2024-04-25T15:55:18.599Z,8.28
2024-04-25T15:57:47.442Z,8.28
2024-04-25T16:00:15.607Z,8.25
2024-04-25T16:02:42.284Z,8.18
2024-04-25T16:05:09.144Z,8.11
2024-04-25T16:07:37.749Z,8.08
2024-04-25T16:10:04.839Z,8.05
2024-04-25T16:12:31.445Z,7.96
2024-04-25T16:14:58.065Z,7.90
2024-04-25T16:17:24.727Z,7.90
2024-04-25T16:19:51.389Z,7.87
2024-04-25T16:22:18.029Z,7.82
2024-04-25T16:24:44.564Z,7.80
2024-04-25T16:27:13.138Z,7.76
2024-04-25T16:29:39.741Z,7.72
2024-04-25T16:32:06.668Z,7.67
2024-04-25T16:34:33.246Z,7.57
2024-04-25T16:36:59.809Z,7.43
2024-04-25T16:39:26.728Z,7.34
2024-04-25T16:41:53.784Z,7.27
2024-04-25T16:44:22.712Z,7.10
2024-04-25T16:46:49.482Z,7.03
2024-04-25T16:49:16.121Z,6.98
2024-04-25T16:51:42.945Z,6.91
2024-04-25T16:54:16.938Z,6.86
2024-04-25T16:56:43.704Z,6.81
2024-04-25T16:59:10.300Z,6.75
2024-04-25T17:01:36.837Z,6.70
2024-04-25T17:04:03.787Z,6.56
2024-04-25T17:06:30.593Z,6.56
2024-04-25T17:09:09.060Z,6.50
2024-04-25T17:11:35.820Z,6.45
2024-04-25T17:14:05.149Z,6.43
2024-04-25T17:16:32.110Z,6.43
2024-04-25T17:18:59.517Z,6.42
2024-04-25T17:21:28.239Z,6.41
2024-04-25T17:24:00.345Z,6.44
2024-04-25T17:26:28.655Z,6.49
2024-04-25T17:28:57.496Z,6.37
2024-04-25T17:31:25.117Z,6.40
2024-04-25T17:33:51.972Z,6.37
2024-04-25T17:36:19.133Z,6.32
2024-04-25T17:38:46.049Z,6.37
2024-04-25T17:41:12.977Z,6.42
2024-04-25T17:43:40.043Z,6.36
2024-04-25T17:46:07.456Z,6.36
2024-04-25T17:48:34.652Z,6.35
2024-04-25T17:51:01.953Z,6.30
2024-04-25T17:53:28.619Z,6.30
2024-04-25T17:55:55.601Z,6.27
2024-04-25T17:58:23.062Z,6.28
2024-04-25T18:00:50.762Z,6.42
2024-04-25T18:03:17.619Z,6.43
2024-04-25T18:05:44.314Z,6.41
2024-04-25T18:08:12.631Z,6.45
2024-04-25T18:10:41.294Z,6.48
2024-04-25T18:13:07.870Z,6.52
2024-04-25T18:15:35.551Z,6.52
2024-04-25T18:18:03.075Z,6.48
2024-04-25T18:20:29.728Z,6.48
2024-04-25T18:22:56.270Z,6.49
2024-04-25T18:25:23.192Z,6.49
2024-04-25T18:27:49.814Z,6.36
2024-04-25T18:30:16.410Z,6.35
2024-04-25T18:32:45.706Z,6.38
2024-04-25T18:35:12.414Z,6.37
2024-04-25T18:37:39.257Z,6.32
2024-04-25T18:40:06.468Z,6.28
2024-04-25T18:42:33.095Z,6.25
2024-04-25T18:44:59.662Z,6.28
2024-04-25T18:47:26.275Z,6.31
2024-04-25T18:49:53.039Z,6.30
2024-04-25T18:52:19.598Z,6.27
2024-04-25T18:54:47.810Z,6.18
2024-04-25T18:57:17.499Z,6.14
2024-04-25T18:59:47.405Z,6.13
2024-04-25T19:02:14.154Z,6.13
2024-04-25T19:04:40.848Z,6.14
2024-04-25T19:07:07.511Z,6.18
2024-04-25T19:09:34.098Z,6.22
2024-04-25T19:12:23.532Z,6.16
2024-04-25T19:14:55.288Z,5.98
2024-04-25T19:17:23.594Z,5.93
2024-04-25T19:19:52.461Z,5.88
2024-04-25T19:22:21.519Z,5.85
2024-04-25T19:24:48.708Z,5.78
2024-04-25T19:27:16.974Z,5.75
2024-04-25T19:29:46.629Z,5.73
2024-04-25T19:32:13.435Z,5.67
2024-04-25T19:34:40.093Z,5.65
2024-04-25T19:37:06.664Z,5.64
2024-04-25T19:41:56.855Z,5.59
2024-04-25T19:42:21.261Z,5.60
2024-04-25T19:44:47.974Z,5.56
2024-04-25T19:47:14.791Z,5.58
2024-04-25T19:49:41.471Z,5.57
2024-04-25T19:52:08.924Z,5.61
2024-04-25T19:54:35.564Z,5.59
2024-04-25T19:57:04.264Z,5.62
2024-04-25T19:59:34.503Z,5.56
2024-04-25T20:02:01.654Z,5.53
2024-04-25T20:04:28.613Z,5.44
2024-04-25T20:06:55.366Z,5.40
2024-04-25T20:09:21.999Z,5.36
2024-04-25T20:11:49.010Z,5.33
2024-04-25T20:14:15.981Z,5.37
2024-04-25T20:16:42.642Z,5.45
2024-04-25T20:19:28.067Z,5.49
2024-04-25T20:21:54.695Z,5.47
2024-04-25T20:24:21.337Z,5.46
2024-04-25T20:26:49.756Z,5.49
2024-04-25T20:29:16.767Z,5.46
2024-04-25T20:31:45.749Z,5.50
2024-04-25T20:34:12.671Z,5.52
2024-04-25T20:36:43.475Z,5.49
2024-04-25T20:39:10.038Z,5.51
2024-04-25T20:41:40.572Z,5.54
2024-04-25T20:44:08.951Z,5.55
2024-04-25T20:46:43.082Z,5.56
2024-04-25T20:49:09.727Z,5.57
2024-04-25T20:51:41.768Z,5.52
2024-04-25T20:54:10.098Z,5.53
2024-04-25T20:56:40.365Z,5.55
2024-04-25T20:59:06.934Z,5.58
2024-04-25T21:01:36.249Z,5.61
2024-04-25T21:04:03.058Z,5.61
2024-04-25T21:06:29.616Z,5.62
2024-04-25T21:08:56.295Z,5.63
2024-04-25T21:11:25.078Z,5.63
2024-04-25T21:13:55.185Z,5.59
2024-04-25T21:16:26.026Z,5.59
2024-04-25T21:18:52.745Z,5.59
2024-04-25T21:21:19.434Z,5.61
2024-04-25T21:23:46.026Z,5.63
2024-04-25T21:26:12.586Z,5.63
2024-04-25T21:28:39.187Z,5.64
2024-04-25T21:31:05.749Z,5.62
2024-04-25T21:33:32.340Z,5.61
2024-04-25T21:35:58.969Z,5.62
2024-04-25T21:38:25.609Z,5.64
2024-04-25T21:40:54.466Z,5.63
2024-04-25T21:43:22.793Z,5.61
2024-04-25T21:45:49.361Z,5.61
2024-04-25T21:48:21.007Z,5.62
2024-04-25T21:50:48.084Z,5.62
2024-04-25T21:53:14.743Z,5.64
2024-04-25T21:55:41.242Z,5.62
2024-04-25T21:58:07.839Z,5.61
2024-04-25T22:00:34.469Z,5.65
2024-04-25T22:03:01.208Z,5.67
2024-04-25T22:05:27.856Z,5.70
2024-04-25T22:07:54.480Z,5.70
2024-04-25T22:10:27.288Z,5.69
2024-04-25T22:12:55.036Z,5.68
2024-04-25T22:15:22.716Z,5.66
2024-04-25T22:17:51.022Z,5.65
2024-04-25T22:20:17.760Z,5.64
2024-04-25T22:22:44.325Z,5.65
2024-04-25T22:25:12.452Z,5.66
2024-04-25T22:27:40.786Z,5.69
2024-04-25T22:30:08.052Z,5.68
2024-04-25T22:32:34.756Z,5.69
2024-04-25T22:35:01.498Z,5.70
2024-04-25T22:37:28.107Z,5.71
2024-04-25T22:39:55.328Z,5.74
2024-04-25T22:42:21.988Z,5.78
2024-04-25T22:44:50.838Z,5.75
2024-04-25T22:47:18.504Z,5.70
2024-04-25T22:49:45.053Z,5.70
2024-04-25T22:52:11.666Z,5.70
2024-04-25T22:54:38.233Z,5.72
2024-04-25T22:57:05.331Z,5.74
2024-04-25T22:59:31.917Z,5.74
2024-04-25T23:02:06.288Z,5.70
2024-04-25T23:04:32.987Z,5.73
2024-04-25T23:06:59.595Z,5.72
2024-04-25T23:09:26.901Z,5.73
2024-04-25T23:11:55.912Z,5.76
2024-04-25T23:14:22.556Z,5.75
2024-04-25T23:16:49.197Z,5.77
2024-04-25T23:19:15.791Z,5.78
2024-04-25T23:21:42.385Z,5.74
2024-04-25T23:24:09.205Z,5.76
2024-04-25T23:26:38.529Z,5.76
2024-04-25T23:29:06.059Z,5.78
2024-04-25T23:31:32.658Z,5.75
2024-04-25T23:33:59.315Z,5.77
2024-04-25T23:36:26.419Z,5.80
2024-04-25T23:38:53.637Z,5.78
2024-04-25T23:41:21.107Z,5.79
2024-04-25T23:43:48.087Z,5.77
2024-04-25T23:46:14.677Z,5.78
2024-04-25T23:48:41.560Z,5.76
2024-04-25T23:51:09.794Z,5.78
2024-04-25T23:53:44.100Z,5.82
2024-04-25T23:56:11.755Z,5.81
2024-04-25T23:58:38.945Z,5.79
